Time;durP1;ratioP1;P1;durP2;ratioP2;P2;SDS_P1;SDS_P2;PMS_P1;PMS_P2;Temp;Humidity;BMP_temperature;BMP_pressure;BME280_temperature;BME280_humidity;BME280_pressure;Samples;Min_cycle;Max_cycle;Signal;HPM_P1;HPM_P2
2022/07/01 00:01:40;;;;;;;15.87;12.00;;;16.00;99.90;;;;;;5030854;28;20460;-36
2022/07/01 00:04:06;;;;;;;14.57;12.43;;;16.00;99.90;;;;;;5030977;28;20429;-36
2022/07/01 00:06:32;;;;;;;13.60;12.20;;;16.00;99.90;;;;;;5030603;28;20867;-37
2022/07/01 00:08:58;;;;;;;12.70;11.47;;;15.90;99.90;;;;;;5030772;28;21119;-37
2022/07/01 00:11:24;;;;;;;12.60;11.40;;;16.00;99.90;;;;;;5030666;28;20461;-37
2022/07/01 00:13:50;;;;;;;12.77;11.47;;;16.00;99.90;;;;;;5030765;28;20240;-36
2022/07/01 00:16:15;;;;;;;12.80;11.53;;;16.00;99.90;;;;;;5030846;28;20920;-37
2022/07/01 00:18:41;;;;;;;12.40;11.13;;;16.10;99.90;;;;;;5030006;28;20190;-36
2022/07/01 00:21:07;;;;;;;12.67;11.37;;;16.20;99.90;;;;;;5030419;28;20175;-36
2022/07/01 00:23:33;;;;;;;12.70;11.37;;;16.20;99.90;;;;;;5030589;28;20425;-36
2022/07/01 00:25:59;;;;;;;12.20;11.00;;;16.20;99.90;;;;;;5029600;28;20213;-36
2022/07/01 00:28:25;;;;;;;13.57;11.90;;;16.10;99.90;;;;;;5029944;28;20186;-36
2022/07/01 00:30:52;;;;;;;12.40;11.20;;;16.10;99.90;;;;;;5030267;28;21270;-36
2022/07/01 00:33:18;;;;;;;12.63;11.40;;;16.00;99.90;;;;;;5029205;28;20433;-36
2022/07/01 00:35:43;;;;;;;12.63;11.40;;;16.10;99.90;;;;;;5030223;28;20433;-37
2022/07/01 00:38:09;;;;;;;14.03;12.53;;;16.10;99.90;;;;;;5029706;28;20448;-36
2022/07/01 00:40:35;;;;;;;16.13;11.83;;;16.10;99.90;;;;;;5030042;28;20190;-36
2022/07/01 00:43:01;;;;;;;13.30;11.13;;;16.10;99.90;;;;;;5029130;28;20189;-37
2022/07/01 00:45:27;;;;;;;12.23;10.97;;;16.10;99.90;;;;;;5030194;28;20186;-37
2022/07/01 00:47:52;;;;;;;15.30;12.20;;;16.10;99.90;;;;;;5029534;28;20823;-37
2022/07/01 00:50:18;;;;;;;15.27;13.13;;;16.10;99.90;;;;;;5030165;28;20193;-36
2022/07/01 00:52:45;;;;;;;13.77;12.37;;;16.00;99.90;;;;;;5029977;28;20507;-36
2022/07/01 00:55:13;;;;;;;16.07;11.97;;;16.10;99.90;;;;;;5029993;28;20544;-36
2022/07/01 00:57:41;;;;;;;14.13;12.63;;;16.10;99.90;;;;;;5029539;28;20428;-36
2022/07/01 01:00:09;;;;;;;15.30;13.70;;;16.10;99.90;;;;;;5029980;28;20441;-36
2022/07/01 01:02:36;;;;;;;16.20;13.77;;;16.00;99.90;;;;;;5029975;28;20461;-36
2022/07/01 01:05:07;;;;;;;16.00;14.13;;;15.80;99.90;;;;;;5030043;28;20425;-37
2022/07/01 01:07:33;;;;;;;13.70;12.17;;;15.80;99.90;;;;;;5028991;28;20444;-36
2022/07/01 01:10:02;;;;;;;14.83;13.23;;;15.80;99.90;;;;;;5029780;28;20441;-37
2022/07/01 01:12:28;;;;;;;13.70;11.73;;;15.90;99.90;;;;;;5029732;28;20463;-36
2022/07/01 01:14:56;;;;;;;13.50;12.07;;;15.90;99.90;;;;;;5029800;28;20417;-36
2022/07/01 01:17:22;;;;;;;16.80;14.00;;;15.90;99.90;;;;;;5029301;28;20418;-36
2022/07/01 01:19:48;;;;;;;13.97;12.47;;;15.80;99.90;;;;;;5029796;28;20432;-37
2022/07/01 01:22:16;;;;;;;15.13;12.30;;;15.90;99.90;;;;;;5031162;28;20532;-37
2022/07/01 01:24:42;;;;;;;16.57;13.43;;;15.90;99.90;;;;;;5029627;28;20524;-36
2022/07/01 01:27:08;;;;;;;15.10;13.10;;;16.00;99.90;;;;;;5029109;28;20421;-36
2022/07/01 01:29:38;;;;;;;15.70;13.37;;;15.90;99.90;;;;;;5029618;28;20465;-36
2022/07/01 01:32:05;;;;;;;15.90;13.63;;;15.90;99.90;;;;;;5029780;28;20255;-36
2022/07/01 01:34:32;;;;;;;16.60;14.17;;;15.80;99.90;;;;;;5028042;28;20512;-37
2022/07/01 01:36:58;;;;;;;16.13;14.20;;;15.80;99.90;;;;;;5031592;28;20417;-36
2022/07/01 01:39:24;;;;;;;15.30;13.70;;;15.80;99.90;;;;;;5033715;28;20906;-36
2022/07/01 01:41:50;;;;;;;15.03;13.23;;;15.80;99.90;;;;;;5033598;28;20537;-36
2022/07/01 01:44:16;;;;;;;16.13;13.43;;;15.80;99.90;;;;;;5033425;28;20417;-36
2022/07/01 01:46:42;;;;;;;14.07;11.50;;;15.80;99.90;;;;;;5033046;28;20194;-37
2022/07/01 01:49:07;;;;;;;15.03;11.93;;;15.90;99.90;;;;;;5033001;28;20198;-36
2022/07/01 01:51:33;;;;;;;12.60;11.03;;;15.80;99.90;;;;;;5033183;28;20467;-36
2022/07/01 01:54:00;;;;;;;12.33;11.03;;;15.70;99.90;;;;;;5033591;28;20202;-36
2022/07/01 01:56:26;;;;;;;13.50;11.70;;;15.60;99.90;;;;;;5033300;28;20559;-36
2022/07/01 01:58:52;;;;;;;12.33;11.07;;;15.50;99.90;;;;;;5032618;28;20440;-37
2022/07/01 02:01:20;;;;;;;14.90;11.40;;;15.40;99.90;;;;;;5033709;28;20747;-36
2022/07/01 02:03:47;;;;;;;11.60;9.93;;;15.40;99.90;;;;;;5033151;28;20851;-36
2022/07/01 02:06:15;;;;;;;12.90;10.30;;;15.50;99.90;;;;;;5033115;28;20436;-36
2022/07/01 02:08:41;;;;;;;11.67;10.47;;;15.50;99.90;;;;;;5032576;28;20439;-36
2022/07/01 02:11:08;;;;;;;10.40;9.20;;;15.70;99.90;;;;;;5033052;28;20433;-36
2022/07/01 02:13:34;;;;;;;10.50;9.20;;;15.70;99.90;;;;;;5033070;28;20193;-36
2022/07/01 02:16:01;;;;;;;9.47;7.77;;;15.80;99.90;;;;;;5033097;28;20436;-36
2022/07/01 02:18:27;;;;;;;11.90;8.53;;;15.70;99.90;;;;;;5032089;28;20418;-36
2022/07/01 02:20:53;;;;;;;9.30;8.30;;;15.60;99.90;;;;;;5033431;28;20431;-36
2022/07/01 02:23:19;;;;;;;10.83;8.70;;;15.60;99.90;;;;;;5034248;28;20436;-36
2022/07/01 02:25:46;;;;;;;12.87;8.27;;;15.60;99.90;;;;;;5032857;28;20436;-37
2022/07/01 02:28:12;;;;;;;9.73;8.73;;;15.60;99.90;;;;;;5032155;28;20683;-37
2022/07/01 02:30:38;;;;;;;9.03;8.13;;;15.60;99.90;;;;;;5032882;28;20421;-36
2022/07/01 02:33:08;;;;;;;9.73;8.40;;;15.60;99.90;;;;;;5032205;28;20545;-36
2022/07/01 02:35:39;;;;;;;9.67;8.77;;;15.60;99.90;;;;;;5032617;28;20482;-36
2022/07/01 02:38:05;;;;;;;7.73;6.43;;;15.60;99.90;;;;;;5031767;28;20422;-36
2022/07/01 02:40:33;;;;;;;10.13;6.80;;;15.50;99.90;;;;;;5032549;28;20539;-36
2022/07/01 02:42:58;;;;;;;7.27;6.10;;;15.50;99.90;;;;;;5030976;28;20936;-36
2022/07/01 02:45:26;;;;;;;8.07;6.13;;;15.50;99.90;;;;;;5031269;28;20432;-37
2022/07/01 02:47:52;;;;;;;6.00;5.40;;;15.50;99.90;;;;;;5031155;28;20210;-36
2022/07/01 02:50:19;;;;;;;6.33;5.63;;;15.50;99.90;;;;;;5032483;28;20426;-36
2022/07/01 02:52:45;;;;;;;8.30;5.87;;;15.50;99.90;;;;;;5032359;28;20226;-37
2022/07/01 02:55:13;;;;;;;8.80;7.23;;;15.50;99.90;;;;;;5032294;28;20465;-37
2022/07/01 02:57:40;;;;;;;8.87;7.00;;;15.40;99.90;;;;;;5031567;28;20788;-36
2022/07/01 03:00:09;;;;;;;8.90;6.77;;;15.40;99.90;;;;;;5031737;28;20437;-36
2022/07/01 03:02:35;;;;;;;8.53;7.10;;;15.30;99.90;;;;;;5032115;28;20642;-36
2022/07/01 03:05:01;;;;;;;8.67;6.17;;;15.20;99.90;;;;;;5031962;28;20421;-37
2022/07/01 03:07:27;;;;;;;9.70;7.43;;;15.30;99.90;;;;;;5031476;28;21112;-37
2022/07/01 03:09:53;;;;;;;9.50;6.90;;;15.40;99.90;;;;;;5032000;28;20194;-36
2022/07/01 03:12:24;;;;;;;7.70;6.40;;;15.50;99.90;;;;;;5031753;28;20464;-36
2022/07/01 03:14:55;;;;;;;7.43;6.30;;;15.40;99.90;;;;;;5030589;28;20197;-36
2022/07/01 03:17:22;;;;;;;11.20;8.40;;;15.40;99.90;;;;;;5031259;28;20424;-36
2022/07/01 03:19:48;;;;;;;14.40;6.90;;;15.40;99.90;;;;;;5031966;28;20482;-37
2022/07/01 03:22:14;;;;;;;10.63;6.30;;;15.40;99.90;;;;;;5033282;28;20432;-36
2022/07/01 03:24:40;;;;;;;10.33;7.10;;;15.40;99.90;;;;;;5031709;28;20464;-36
2022/07/01 03:27:05;;;;;;;7.70;6.33;;;15.50;99.90;;;;;;5031064;28;20201;-36
2022/07/01 03:29:31;;;;;;;9.03;5.90;;;15.50;99.90;;;;;;5031711;28;20479;-37
2022/07/01 03:31:57;;;;;;;8.63;6.63;;;15.50;99.90;;;;;;5031603;28;20314;-36
2022/07/01 03:34:23;;;;;;;6.67;6.07;;;15.50;99.90;;;;;;5030014;28;20183;-36
2022/07/01 03:36:48;;;;;;;8.43;6.80;;;15.60;99.90;;;;;;5030989;28;20649;-36
2022/07/01 03:39:14;;;;;;;8.33;6.37;;;15.60;99.90;;;;;;5031388;28;20186;-36
2022/07/01 03:41:40;;;;;;;7.23;5.97;;;15.60;99.90;;;;;;5031377;28;20248;-37
2022/07/01 03:44:08;;;;;;;9.67;6.80;;;15.50;99.90;;;;;;5030893;28;20186;-36
2022/07/01 03:46:35;;;;;;;8.80;7.53;;;15.50;99.90;;;;;;5030789;28;20206;-36
2022/07/01 03:49:02;;;;;;;7.30;6.37;;;15.50;99.90;;;;;;5030978;28;20427;-36
2022/07/01 03:51:28;;;;;;;7.60;6.80;;;15.40;99.90;;;;;;5031311;28;20461;-36
2022/07/01 03:56:38;;;;;;;10.27;8.60;;;15.50;99.90;;;;;;5030653;28;20525;-36
2022/07/01 03:59:03;;;;;;;9.13;7.80;;;15.40;99.90;;;;;;5030762;28;20536;-36
2022/07/01 04:01:29;;;;;;;9.37;7.93;;;15.40;99.90;;;;;;5031029;28;20790;-37
2022/07/01 04:03:56;;;;;;;10.13;7.60;;;15.40;99.90;;;;;;5030975;28;20197;-36
2022/07/01 04:06:22;;;;;;;10.00;8.80;;;15.30;99.90;;;;;;5031018;28;20512;-37
2022/07/01 04:08:48;;;;;;;8.73;6.90;;;15.30;99.90;;;;;;5030237;28;20432;-37
2022/07/01 04:11:15;;;;;;;11.67;8.03;;;15.30;99.90;;;;;;5030503;28;20490;-37
2022/07/01 04:13:41;;;;;;;10.67;7.60;;;15.30;99.90;;;;;;5030701;28;20425;-36
2022/07/01 04:16:07;;;;;;;10.53;7.80;;;15.30;99.90;;;;;;5030690;28;20773;-36
2022/07/01 04:18:33;;;;;;;9.23;7.50;;;15.40;99.90;;;;;;5030077;28;20433;-36
2022/07/01 04:23:44;;;;;;;11.40;8.00;;;15.40;99.90;;;;;;5018097;28;20424;-37
2022/07/01 04:26:09;;;;;;;11.07;7.70;;;15.40;99.90;;;;;;5030409;28;20428;-36
2022/07/01 04:28:35;;;;;;;10.00;8.53;;;15.30;99.90;;;;;;5028770;28;20421;-37
2022/07/01 04:31:01;;;;;;;8.67;7.80;;;15.20;99.90;;;;;;5030348;28;20202;-36
2022/07/01 04:33:27;;;;;;;8.50;6.90;;;15.30;99.90;;;;;;5029113;28;20259;-36
2022/07/01 04:35:52;;;;;;;10.80;8.00;;;15.30;99.90;;;;;;5030366;28;20191;-36
2022/07/01 04:38:18;;;;;;;8.90;7.60;;;15.30;99.90;;;;;;5029473;28;20564;-36
2022/07/01 04:41:58;;;;;;;10.20;7.73;;;15.30;99.90;;;;;;5030406;28;20197;-36
2022/07/01 04:43:29;;;;;;;9.03;7.30;;;15.30;99.90;;;;;;5030042;28;20187;-36
2022/07/01 04:45:55;;;;;;;8.40;7.60;;;15.20;99.90;;;;;;5030170;28;20421;-36
2022/07/01 04:48:21;;;;;;;11.67;7.97;;;15.30;99.90;;;;;;5029384;28;20507;-37
2022/07/01 04:50:47;;;;;;;9.90;8.30;;;15.30;99.90;;;;;;5023524;28;20615;-37
2022/07/01 04:53:13;;;;;;;8.00;7.20;;;15.30;99.90;;;;;;5028470;28;20461;-37
2022/07/01 04:55:39;;;;;;;9.50;8.30;;;15.30;99.90;;;;;;5030153;28;20194;-36
2022/07/01 04:58:05;;;;;;;9.37;7.83;;;15.30;99.90;;;;;;5029195;28;20428;-36
2022/07/01 05:00:32;;;;;;;9.97;8.97;;;15.30;99.90;;;;;;5028941;28;20205;-36
2022/07/01 05:02:57;;;;;;;10.17;7.33;;;15.20;99.90;;;;;;5029887;28;20313;-37
2022/07/01 05:05:23;;;;;;;10.50;7.60;;;15.30;99.90;;;;;;5030096;28;20441;-36
2022/07/01 05:07:49;;;;;;;10.40;8.40;;;15.30;99.90;;;;;;5029266;28;20689;-36
2022/07/01 05:10:15;;;;;;;10.40;7.80;;;15.30;99.90;;;;;;5029440;28;20191;-36
2022/07/01 05:12:40;;;;;;;10.70;7.50;;;15.30;99.90;;;;;;5029749;28;20268;-37
2022/07/01 05:15:07;;;;;;;8.70;7.47;;;15.30;99.90;;;;;;5029081;28;20197;-36
2022/07/01 05:23:02;;;;;;;8.20;7.40;;;15.60;99.90;;;;;;5031315;28;21058;-37
2022/07/01 05:25:28;;;;;;;10.07;7.90;;;15.50;99.90;;;;;;5015993;28;20488;-36
2022/07/01 05:27:56;;;;;;;8.13;7.33;;;15.50;99.90;;;;;;5019669;28;20538;-37
2022/07/01 05:30:22;;;;;;;11.43;8.23;;;15.60;99.90;;;;;;5028809;28;20264;-36
2022/07/01 05:32:48;;;;;;;10.77;7.83;;;15.50;99.90;;;;;;5029282;28;20900;-37
2022/07/01 05:35:14;;;;;;;8.53;7.10;;;15.40;99.90;;;;;;5024954;28;20188;-36
2022/07/01 05:37:43;;;;;;;9.70;7.80;;;15.50;99.90;;;;;;5024884;28;20182;-37
2022/07/01 05:40:09;;;;;;;6.77;6.07;;;15.50;99.90;;;;;;5020537;28;20501;-36
2022/07/01 05:42:35;;;;;;;6.80;6.13;;;15.50;99.90;;;;;;5025584;28;20429;-36
2022/07/01 05:45:00;;;;;;;6.97;6.27;;;15.60;99.90;;;;;;5029669;28;20484;-37
2022/07/01 05:47:26;;;;;;;10.33;6.80;;;15.60;99.90;;;;;;5020222;28;20196;-37
2022/07/01 05:49:52;;;;;;;13.20;7.40;;;15.60;99.90;;;;;;5029522;28;20198;-37
2022/07/01 05:52:17;;;;;;;12.23;6.60;;;15.70;99.90;;;;;;5028723;28;20222;-37
2022/07/01 05:54:43;;;;;;;10.93;7.10;;;15.70;99.90;;;;;;5028329;28;20195;-37
2022/07/01 05:57:09;;;;;;;8.97;7.07;;;15.70;99.90;;;;;;5028525;28;20278;-36
2022/07/01 05:59:35;;;;;;;9.10;7.40;;;15.70;99.90;;;;;;5029439;28;20715;-37
2022/07/01 06:02:01;;;;;;;9.07;7.10;;;15.60;99.90;;;;;;5020009;28;20444;-36
2022/07/01 06:04:27;;;;;;;8.47;7.70;;;15.50;99.90;;;;;;5029440;28;20421;-36
2022/07/01 06:06:52;;;;;;;9.17;8.13;;;15.50;99.90;;;;;;5023176;28;20928;-37
2022/07/01 06:09:19;;;;;;;9.30;8.30;;;15.60;99.90;;;;;;5019224;28;20282;-36
2022/07/01 06:11:45;;;;;;;11.33;7.60;;;15.50;99.90;;;;;;5025312;28;20325;-36
2022/07/01 06:14:12;;;;;;;9.73;7.17;;;15.40;99.90;;;;;;5026207;28;20465;-37
2022/07/01 06:16:37;;;;;;;9.30;7.57;;;15.40;99.90;;;;;;5028764;28;20505;-37
2022/07/01 06:19:06;;;;;;;7.87;6.60;;;15.50;99.90;;;;;;5029604;28;20451;-36
2022/07/01 06:21:32;;;;;;;7.90;7.10;;;15.50;99.90;;;;;;5029072;28;20191;-36
2022/07/01 06:23:58;;;;;;;8.80;7.50;;;15.50;99.90;;;;;;5031342;28;20425;-36
2022/07/01 06:26:24;;;;;;;8.93;7.83;;;15.50;99.90;;;;;;5032253;28;20427;-36
2022/07/01 06:28:49;;;;;;;7.00;6.10;;;15.50;99.90;;;;;;5032447;28;20193;-36
2022/07/01 06:31:15;;;;;;;7.43;6.73;;;15.60;99.90;;;;;;5032512;28;20862;-37
2022/07/01 06:33:41;;;;;;;8.20;7.20;;;15.60;99.90;;;;;;5027827;28;20201;-36
2022/07/01 06:36:07;;;;;;;8.40;7.00;;;15.60;99.90;;;;;;5032513;28;20194;-36
2022/07/01 06:38:32;;;;;;;7.77;7.00;;;15.50;99.90;;;;;;5032063;28;20183;-37
2022/07/01 06:43:43;;;;;;;6.83;6.00;;;15.50;99.90;;;;;;5029660;28;20209;-36
2022/07/01 06:46:10;;;;;;;8.63;6.30;;;15.60;99.90;;;;;;5031042;28;20783;-36
2022/07/01 06:48:35;;;;;;;9.10;6.97;;;15.70;99.90;;;;;;5030753;28;20201;-36
2022/07/01 06:51:02;;;;;;;10.00;5.70;;;15.80;99.90;;;;;;5032260;28;20425;-36
2022/07/01 06:53:28;;;;;;;8.17;6.47;;;16.00;99.90;;;;;;5030728;28;20477;-36
2022/07/01 06:55:54;;;;;;;7.03;5.73;;;16.10;99.90;;;;;;5032351;28;20848;-36
2022/07/01 06:58:19;;;;;;;6.63;5.70;;;16.20;99.90;;;;;;5031697;28;20201;-36
2022/07/01 07:00:45;;;;;;;8.13;5.87;;;16.30;99.90;;;;;;5032144;28;20569;-36
2022/07/01 07:03:11;;;;;;;5.80;5.07;;;16.30;99.90;;;;;;5032080;28;20198;-37
2022/07/01 07:05:36;;;;;;;7.23;6.27;;;16.40;99.90;;;;;;5032323;28;20194;-37
2022/07/01 07:08:02;;;;;;;6.23;5.63;;;16.40;99.90;;;;;;5028972;28;20198;-37
2022/07/01 07:10:28;;;;;;;7.00;5.43;;;16.30;99.90;;;;;;5026075;28;20190;-36
2022/07/01 07:12:54;;;;;;;7.30;5.73;;;16.40;99.90;;;;;;5023517;28;20468;-36
2022/07/01 07:15:19;;;;;;;7.03;5.83;;;16.40;99.90;;;;;;5031003;28;20190;-36
2022/07/01 07:17:45;;;;;;;7.53;5.70;;;16.40;99.90;;;;;;5031229;28;20194;-36
2022/07/01 07:20:11;;;;;;;8.67;6.47;;;16.40;99.90;;;;;;5031928;28;20293;-36
2022/07/01 07:22:36;;;;;;;6.77;5.83;;;16.40;99.90;;;;;;5034461;28;20190;-36
2022/07/01 07:25:02;;;;;;;10.00;6.53;;;16.40;99.90;;;;;;5031836;28;20689;-36
2022/07/01 07:27:28;;;;;;;8.30;6.50;;;16.50;99.90;;;;;;5031225;28;20716;-36
2022/07/01 07:29:54;;;;;;;7.27;6.50;;;16.40;99.90;;;;;;5031512;28;20441;-36
2022/07/01 07:32:20;;;;;;;9.10;5.83;;;16.30;99.90;;;;;;5031574;28;20483;-36
2022/07/01 07:34:46;;;;;;;7.47;6.37;;;16.40;99.90;;;;;;5030129;28;20198;-37
2022/07/01 07:37:11;;;;;;;6.10;5.53;;;16.30;99.90;;;;;;5030759;28;20183;-37
2022/07/01 07:39:37;;;;;;;6.77;5.80;;;16.40;99.90;;;;;;5031222;28;20205;-36
2022/07/01 07:42:04;;;;;;;6.40;5.77;;;16.40;99.90;;;;;;5031583;28;20194;-37
2022/07/01 07:44:29;;;;;;;5.70;4.00;;;16.60;99.90;;;;;;5031366;28;20429;-36
2022/07/01 07:46:56;;;;;;;7.97;5.03;;;16.60;99.90;;;;;;5030504;28;20626;-36
2022/07/01 07:49:23;;;;;;;6.10;4.80;;;16.70;99.90;;;;;;5031226;28;20540;-36
2022/07/01 07:51:49;;;;;;;4.83;4.43;;;16.90;99.90;;;;;;5030835;28;20472;-36
2022/07/01 07:54:15;;;;;;;5.77;4.87;;;17.00;99.90;;;;;;5031437;28;20429;-37
2022/07/01 07:56:40;;;;;;;5.93;4.93;;;17.10;99.90;;;;;;5030718;28;20256;-36
2022/07/01 07:59:06;;;;;;;6.03;5.20;;;17.20;99.90;;;;;;5030666;28;20199;-36
2022/07/01 08:01:32;;;;;;;6.40;5.60;;;17.30;99.90;;;;;;5030916;28;20277;-37
2022/07/01 08:03:58;;;;;;;7.60;5.53;;;17.30;99.90;;;;;;5031098;28;20994;-37
2022/07/01 08:06:24;;;;;;;5.27;4.77;;;17.30;99.90;;;;;;5030805;28;20224;-36
2022/07/01 08:08:50;;;;;;;6.23;5.53;;;17.30;99.90;;;;;;5022334;28;20465;-37
2022/07/01 08:11:16;;;;;;;6.90;5.33;;;17.40;99.90;;;;;;5027547;28;20452;-36
2022/07/01 08:13:43;;;;;;;5.23;4.73;;;17.40;99.90;;;;;;5030355;28;20567;-36
2022/07/01 08:16:09;;;;;;;5.40;4.90;;;17.30;99.90;;;;;;5030748;28;20490;-36
2022/07/01 08:18:35;;;;;;;8.00;4.67;;;17.30;99.90;;;;;;5029743;28;20516;-36
2022/07/01 08:21:01;;;;;;;6.23;3.93;;;17.20;99.90;;;;;;5031863;28;20527;-37
2022/07/01 08:23:27;;;;;;;4.23;3.83;;;17.20;99.90;;;;;;5031138;28;20858;-37
2022/07/01 08:25:52;;;;;;;4.40;3.80;;;17.20;99.90;;;;;;5030294;28;20194;-37
2022/07/01 08:28:18;;;;;;;4.43;4.03;;;17.00;99.90;;;;;;5029530;28;20217;-36
2022/07/01 08:30:45;;;;;;;4.27;3.87;;;17.00;99.90;;;;;;5030489;28;20791;-36
2022/07/01 08:33:11;;;;;;;4.00;3.70;;;17.00;99.90;;;;;;5029393;28;20245;-36
2022/07/01 08:35:37;;;;;;;7.50;3.80;;;17.10;99.90;;;;;;5028653;28;20827;-37
2022/07/01 08:38:03;;;;;;;4.80;4.30;;;17.20;99.90;;;;;;5024281;28;20241;-36
2022/07/01 08:40:30;;;;;;;4.17;3.87;;;17.20;99.90;;;;;;5020886;28;20425;-36
2022/07/01 08:42:58;;;;;;;5.20;4.33;;;17.20;99.90;;;;;;5023481;28;20244;-36
2022/07/01 08:45:26;;;;;;;7.70;4.03;;;17.20;99.90;;;;;;5019152;28;20432;-36
2022/07/01 08:47:57;;;;;;;4.40;4.00;;;17.30;99.90;;;;;;5017613;28;20437;-36
2022/07/01 08:50:26;;;;;;;5.63;4.00;;;17.50;99.90;;;;;;5029929;28;20440;-36
2022/07/01 08:52:52;;;;;;;4.93;4.43;;;17.60;99.90;;;;;;5029894;28;20551;-37
2022/07/01 08:55:23;;;;;;;4.67;3.97;;;17.70;99.90;;;;;;5030062;28;20441;-36
2022/07/01 08:57:49;;;;;;;5.53;4.50;;;17.70;99.90;;;;;;5029293;28;20421;-36
2022/07/01 09:00:16;;;;;;;5.70;5.10;;;17.90;99.90;;;;;;5030009;28;20471;-37
2022/07/01 09:02:55;;;;;;;6.43;5.07;;;18.20;99.90;;;;;;5029477;28;20445;-36
2022/07/01 09:05:22;;;;;;;5.40;4.90;;;18.40;99.90;;;;;;5030176;28;20431;-37
2022/07/01 09:07:49;;;;;;;5.73;5.23;;;18.50;99.90;;;;;;5029167;28;20902;-36
2022/07/01 09:10:19;;;;;;;5.50;5.00;;;18.60;99.90;;;;;;5028016;28;20441;-37
2022/07/01 09:12:46;;;;;;;4.60;4.20;;;18.60;99.90;;;;;;5026380;28;20476;-37
2022/07/01 09:15:26;;;;;;;5.53;3.77;;;18.60;99.90;;;;;;5029246;28;20547;-37
2022/07/01 09:17:53;;;;;;;4.03;3.70;;;18.60;99.90;;;;;;5028831;28;20746;-36
2022/07/01 09:20:37;;;;;;;5.40;3.83;;;18.80;99.90;;;;;;5029749;28;20437;-37
2022/07/01 09:23:04;;;;;;;3.30;3.10;;;19.00;99.90;;;;;;5031847;28;20436;-37
2022/07/01 09:25:32;;;;;;;4.13;3.30;;;19.00;99.90;;;;;;5029437;28;20443;-37
2022/07/01 09:28:15;;;;;;;3.07;2.87;;;18.90;99.90;;;;;;5028643;28;20431;-37
2022/07/01 09:30:43;;;;;;;4.33;3.80;;;18.80;99.90;;;;;;5029552;28;20530;-37
2022/07/01 09:33:12;;;;;;;5.30;3.63;;;18.70;99.90;;;;;;5027288;28;20476;-37
2022/07/01 09:35:39;;;;;;;4.43;3.17;;;18.70;99.90;;;;;;5029291;28;20433;-36
2022/07/01 09:38:07;;;;;;;4.17;3.73;;;18.50;99.90;;;;;;5028584;28;20950;-37
2022/07/01 09:40:45;;;;;;;6.23;3.70;;;18.40;99.90;;;;;;5029308;28;20426;-36
2022/07/01 09:43:26;;;;;;;4.03;2.80;;;18.40;99.90;;;;;;5029418;28;20429;-37
2022/07/01 09:45:59;;;;;;;3.07;2.83;;;18.30;99.90;;;;;;5029587;28;20421;-37
2022/07/01 09:48:47;;;;;;;3.73;3.33;;;18.30;99.90;;;;;;5028567;28;20429;-36
2022/07/01 09:51:15;;;;;;;3.83;3.20;;;18.30;99.90;;;;;;5028527;28;20425;-37
2022/07/01 09:53:41;;;;;;;4.57;3.30;;;18.40;99.90;;;;;;5029164;28;20452;-37
2022/07/01 09:56:07;;;;;;;3.50;2.90;;;18.50;99.90;;;;;;5029502;28;20443;-36
2022/07/01 09:58:34;;;;;;;4.20;2.80;;;18.60;99.90;;;;;;5031904;28;20939;-37
2022/07/01 10:01:02;;;;;;;2.93;2.63;;;18.60;99.90;;;;;;5033012;28;20204;-36
2022/07/01 10:03:31;;;;;;;2.43;2.23;;;18.70;99.90;;;;;;5027486;28;20432;-36
2022/07/01 10:06:11;;;;;;;3.40;2.43;;;18.90;99.90;;;;;;5022114;28;20433;-37
2022/07/01 10:08:46;;;;;;;3.37;2.40;;;19.00;99.90;;;;;;5025312;28;20436;-37
2022/07/01 10:11:42;;;;;;;2.97;2.30;;;19.00;99.90;;;;;;5027089;28;20444;-37
2022/07/01 10:14:10;;;;;;;4.03;2.63;;;19.30;99.90;;;;;;5030116;28;20424;-37
2022/07/01 10:16:38;;;;;;;3.67;2.50;;;19.50;99.90;;;;;;5032394;28;20811;-37
2022/07/01 10:19:24;;;;;;;5.97;3.27;;;19.60;99.90;;;;;;5032730;28;20425;-37
2022/07/01 10:21:51;;;;;;;4.50;2.30;;;19.70;99.90;;;;;;5033879;28;20432;-37
2022/07/01 10:24:18;;;;;;;4.90;2.80;;;19.60;99.90;;;;;;5032827;28;20444;-36
2022/07/01 10:26:45;;;;;;;6.23;2.23;;;19.60;99.90;;;;;;5032050;28;20507;-37
2022/07/01 10:29:31;;;;;;;2.03;1.83;;;19.70;99.90;;;;;;5032805;28;21150;-37
2022/07/01 10:32:22;;;;;;;1.83;1.73;;;19.60;99.90;;;;;;5031157;28;20817;-36
2022/07/01 10:34:48;;;;;;;2.17;1.87;;;19.50;99.90;;;;;;5013957;28;20475;-37
2022/07/01 10:37:17;;;;;;;3.60;2.23;;;19.50;99.90;;;;;;5031682;28;20432;-37
2022/07/01 10:39:57;;;;;;;2.73;1.90;;;19.60;99.90;;;;;;5032502;28;20758;-37
2022/07/01 10:42:31;;;;;;;2.03;1.93;;;19.60;99.90;;;;;;5032244;28;20425;-36
2022/07/01 10:45:10;;;;;;;3.00;1.90;;;19.60;99.90;;;;;;5032245;28;20523;-37
2022/07/01 10:47:39;;;;;;;4.30;2.03;;;19.50;99.90;;;;;;5031667;28;20964;-36
2022/07/01 10:50:05;;;;;;;5.43;2.00;;;19.50;99.90;;;;;;5032049;28;20523;-36
2022/07/01 10:52:31;;;;;;;3.50;2.00;;;19.80;99.90;;;;;;5032012;28;20551;-37
2022/07/01 10:54:59;;;;;;;2.40;1.50;;;20.00;99.90;;;;;;5032195;28;20425;-36
2022/07/01 10:57:34;;;;;;;4.43;2.17;;;20.20;99.90;;;;;;5030896;28;20473;-37
2022/07/01 11:00:00;;;;;;;1.40;1.30;;;20.30;99.90;;;;;;5032190;28;20862;-37
2022/07/01 11:02:31;;;;;;;2.80;1.63;;;20.40;99.90;;;;;;5032032;28;20448;-37
2022/07/01 11:05:07;;;;;;;2.03;1.63;;;20.40;99.90;;;;;;5032060;28;20190;-37
2022/07/01 11:07:35;;;;;;;1.90;1.70;;;20.30;99.90;;;;;;5030019;28;20923;-37
2022/07/01 11:10:02;;;;;;;2.73;1.60;;;20.20;99.90;;;;;;5031029;28;20417;-37
2022/07/01 11:12:29;;;;;;;2.70;1.83;;;20.20;99.90;;;;;;5029807;28;20480;-37
2022/07/01 11:14:58;;;;;;;1.93;1.33;;;20.30;99.90;;;;;;5031311;28;20944;-37
2022/07/01 11:17:25;;;;;;;1.90;1.30;;;20.50;99.90;;;;;;5031241;28;20421;-36
2022/07/01 11:19:53;;;;;;;1.97;1.40;;;20.60;99.90;;;;;;5031657;28;20421;-36
2022/07/01 11:22:29;;;;;;;2.33;1.40;;;20.90;99.90;;;;;;5033914;28;20542;-37
2022/07/01 11:25:01;;;;;;;3.00;1.30;;;21.10;99.90;;;;;;5031731;28;20465;-37
2022/07/01 11:27:28;;;;;;;4.00;1.60;;;21.00;99.80;;;;;;5030910;28;20429;-36
2022/07/01 11:29:56;;;;;;;1.50;1.30;;;21.00;99.90;;;;;;5031450;28;20499;-37
2022/07/01 11:32:43;;;;;;;1.47;1.00;;;21.00;99.40;;;;;;5031447;28;20515;-37
2022/07/01 11:41:29;;;;;;;1.30;1.07;;;21.20;98.10;;;;;;5031134;28;20429;-37
2022/07/01 11:43:55;;;;;;;1.83;1.13;;;21.30;98.20;;;;;;5029977;28;20451;-36
2022/07/01 11:46:21;;;;;;;4.60;1.67;;;21.10;98.50;;;;;;5031434;28;20999;-37
2022/07/01 11:48:53;;;;;;;1.83;1.00;;;21.10;98.70;;;;;;5030050;28;20426;-37
2022/07/01 11:51:20;;;;;;;1.73;1.40;;;21.20;99.70;;;;;;5031080;28;20429;-37
2022/07/01 11:53:50;;;;;;;1.30;1.20;;;21.30;99.50;;;;;;5030847;28;20468;-37
2022/07/01 11:56:39;;;;;;;1.43;1.17;;;21.50;99.50;;;;;;5031358;28;20485;-37
2022/07/01 11:59:04;;;;;;;3.13;1.30;;;21.60;98.70;;;;;;5030746;28;20437;-37
2022/07/01 12:01:33;;;;;;;1.80;1.07;;;21.90;98.80;;;;;;5031236;28;20430;-37
2022/07/01 12:04:02;;;;;;;1.93;1.00;;;21.90;97.60;;;;;;5030497;28;20237;-37
2022/07/01 12:06:29;;;;;;;2.17;1.20;;;22.00;97.30;;;;;;5031064;28;20432;-37
2022/07/01 12:08:56;;;;;;;2.60;1.07;;;22.10;97.00;;;;;;5030169;28;20956;-37
2022/07/01 12:11:24;;;;;;;2.60;1.07;;;22.30;97.60;;;;;;5030657;28;20482;-37
2022/07/01 12:13:50;;;;;;;2.80;1.20;;;22.30;97.20;;;;;;5028580;28;20451;-37
2022/07/01 12:16:17;;;;;;;1.47;1.03;;;22.40;96.70;;;;;;5030167;28;20467;-37
2022/07/01 12:18:56;;;;;;;1.10;1.00;;;22.40;96.50;;;;;;5029671;28;20434;-37
2022/07/01 12:21:22;;;;;;;1.40;1.30;;;22.50;97.00;;;;;;5026242;28;20416;-37
2022/07/01 12:24:08;;;;;;;1.63;1.50;;;22.50;96.90;;;;;;5030485;28;20421;-37
2022/07/01 12:26:34;;;;;;;3.13;1.10;;;22.40;96.10;;;;;;5029716;28;20425;-37
2022/07/01 12:29:00;;;;;;;2.60;1.20;;;22.30;95.60;;;;;;5030069;28;20421;-37
2022/07/01 12:31:25;;;;;;;2.03;1.33;;;22.30;95.40;;;;;;5029127;28;20428;-37
2022/07/01 12:33:52;;;;;;;2.17;1.10;;;22.30;95.80;;;;;;5029363;28;20779;-37
2022/07/01 12:36:18;;;;;;;1.87;1.50;;;22.30;95.60;;;;;;5030149;28;20244;-37
2022/07/01 12:38:44;;;;;;;3.43;1.40;;;22.20;95.30;;;;;;5029517;28;20417;-37
2022/07/01 12:41:29;;;;;;;2.17;1.40;;;22.20;96.80;;;;;;5030333;28;20639;-37
2022/07/01 12:43:55;;;;;;;1.83;1.63;;;22.30;96.20;;;;;;5029832;28;20425;-37
2022/07/01 12:46:30;;;;;;;2.60;1.30;;;22.20;95.00;;;;;;5030264;28;20424;-37
2022/07/01 12:48:57;;;;;;;3.07;1.33;;;22.20;95.90;;;;;;5029646;28;20424;-37
2022/07/01 12:51:32;;;;;;;2.80;1.40;;;22.10;96.10;;;;;;5030278;28;20432;-37
2022/07/01 12:53:59;;;;;;;2.43;1.53;;;22.00;96.00;;;;;;5029662;28;20479;-37
2022/07/01 12:56:26;;;;;;;1.90;1.50;;;22.00;96.50;;;;;;5030228;28;20432;-37
2022/07/01 12:58:53;;;;;;;3.37;1.50;;;21.90;95.90;;;;;;5029218;28;20443;-37
2022/07/01 13:01:20;;;;;;;1.07;0.90;;;21.80;95.40;;;;;;5030337;28;20421;-37
2022/07/01 13:03:46;;;;;;;1.77;1.03;;;21.70;95.80;;;;;;5030008;28;20429;-37
2022/07/01 13:06:12;;;;;;;5.50;1.10;;;21.80;96.60;;;;;;5030052;28;20424;-37